Time;durP1;ratioP1;P1;durP2;ratioP2;P2;SDS_P1;SDS_P2;PMS_P1;PMS_P2;Temp;Humidity;BMP_temperature;BMP_pressure;BME280_temperature;BME280_humidity;BME280_pressure;Samples;Min_cycle;Max_cycle;Signal;HPM_P1;HPM_P2
2022/04/12 00:01:04;;;;;;;0.40;0.40;;;6.60;86.20;;;;;;5052360;28;20269;-68
2022/04/12 00:03:30;;;;;;;0.40;0.40;;;6.50;84.20;;;;;;5051982;28;20191;-67
2022/04/12 00:05:56;;;;;;;0.30;0.30;;;6.50;84.60;;;;;;5053177;28;20203;-67
2022/04/12 00:08:22;;;;;;;0.40;0.40;;;6.50;85.30;;;;;;5053194;28;20568;-68
2022/04/12 00:10:49;;;;;;;0.40;0.40;;;6.40;83.80;;;;;;5053066;28;20651;-67
2022/04/12 00:13:18;;;;;;;0.40;0.40;;;6.40;80.90;;;;;;5053294;28;20169;-68
2022/04/12 00:15:44;;;;;;;0.30;0.30;;;6.50;80.60;;;;;;5053411;28;20182;-67
2022/04/12 00:20:53;;;;;;;0.40;0.40;;;6.60;79.50;;;;;;5053288;28;20654;-68
2022/04/12 00:23:19;;;;;;;0.40;0.40;;;6.70;80.80;;;;;;5057160;28;20186;-67
2022/04/12 00:25:45;;;;;;;0.40;0.40;;;6.70;81.70;;;;;;5057440;28;20281;-68
2022/04/12 00:28:12;;;;;;;0.30;0.30;;;6.60;82.30;;;;;;5057070;28;20561;-67
2022/04/12 00:30:38;;;;;;;0.30;0.30;;;6.50;82.30;;;;;;5057055;28;20163;-67
2022/04/12 00:33:04;;;;;;;0.30;0.30;;;6.50;83.10;;;;;;5057108;28;20174;-68
2022/04/12 00:35:30;;;;;;;0.30;0.30;;;6.40;81.80;;;;;;5057035;28;20178;-67
2022/04/12 00:37:56;;;;;;;0.30;0.30;;;6.40;82.90;;;;;;5056906;28;20629;-68
2022/04/12 00:40:26;;;;;;;0.30;0.30;;;6.30;80.50;;;;;;5056928;28;20692;-68
2022/04/12 00:42:53;;;;;;;0.40;0.40;;;6.30;79.90;;;;;;5056938;28;20223;-67
2022/04/12 00:45:19;;;;;;;0.40;0.40;;;6.40;78.90;;;;;;5056889;28;20222;-68
2022/04/12 00:47:45;;;;;;;0.38;0.38;;;6.50;80.90;;;;;;5056928;28;20194;-67
2022/04/12 00:50:13;;;;;;;0.40;0.40;;;6.50;81.80;;;;;;5056822;28;20189;-68
2022/04/12 00:52:48;;;;;;;0.40;0.40;;;6.40;84.40;;;;;;5056745;28;20571;-68
2022/04/12 00:55:14;;;;;;;0.40;0.40;;;6.30;84.30;;;;;;5056749;28;20216;-67
2022/04/12 00:57:41;;;;;;;0.30;0.30;;;6.20;83.40;;;;;;5056674;28;20198;-68
2022/04/12 01:00:09;;;;;;;0.40;0.40;;;6.20;83.30;;;;;;5056398;28;20173;-68
2022/04/12 01:02:35;;;;;;;0.40;0.40;;;6.10;83.90;;;;;;5056503;28;20588;-67
2022/04/12 01:05:02;;;;;;;0.60;0.60;;;6.20;84.30;;;;;;5056738;28;20245;-68
2022/04/12 01:07:28;;;;;;;0.40;0.40;;;6.20;84.80;;;;;;5056318;28;20683;-67
2022/04/12 01:09:54;;;;;;;0.30;0.30;;;6.30;83.70;;;;;;5056404;28;20170;-67
2022/04/12 01:12:21;;;;;;;0.30;0.30;;;6.30;83.60;;;;;;5056669;28;20244;-67
2022/04/12 01:14:48;;;;;;;0.40;0.40;;;6.30;84.60;;;;;;5056426;28;20401;-68
2022/04/12 01:17:15;;;;;;;0.40;0.40;;;6.10;85.80;;;;;;5054904;28;20663;-67
2022/04/12 01:19:41;;;;;;;0.40;0.40;;;6.10;86.90;;;;;;5056480;28;20250;-67
2022/04/12 01:22:11;;;;;;;0.35;0.35;;;6.20;86.10;;;;;;5055858;28;20186;-67
2022/04/12 01:24:38;;;;;;;0.40;0.40;;;6.10;86.10;;;;;;5056339;28;20166;-67
2022/04/12 01:27:04;;;;;;;0.50;0.50;;;6.10;85.80;;;;;;5055996;28;20251;-68
2022/04/12 01:29:35;;;;;;;0.40;0.40;;;6.10;86.00;;;;;;5056034;28;20195;-67
2022/04/12 01:32:02;;;;;;;0.40;0.40;;;6.10;85.80;;;;;;5055670;28;20540;-67
2022/04/12 01:34:28;;;;;;;0.40;0.40;;;6.10;84.90;;;;;;5056003;28;20173;-67
2022/04/12 01:36:54;;;;;;;0.30;0.30;;;6.20;84.40;;;;;;5056188;28;20575;-67
2022/04/12 01:39:20;;;;;;;0.40;0.40;;;6.20;85.10;;;;;;5055990;28;20170;-67
2022/04/12 01:41:46;;;;;;;0.38;0.38;;;6.10;86.70;;;;;;5054554;28;20405;-67
2022/04/12 01:44:12;;;;;;;0.30;0.30;;;6.00;86.70;;;;;;5055871;28;20178;-67
2022/04/12 01:46:37;;;;;;;0.40;0.40;;;5.90;87.60;;;;;;5056034;28;20194;-68
2022/04/12 01:49:03;;;;;;;0.40;0.40;;;5.90;89.20;;;;;;5055681;28;20466;-68
2022/04/12 01:51:29;;;;;;;0.40;0.40;;;6.00;88.50;;;;;;5055505;28;20166;-67
2022/04/12 01:53:55;;;;;;;0.40;0.40;;;6.00;88.80;;;;;;5055665;28;20419;-67
2022/04/12 01:56:20;;;;;;;0.40;0.40;;;5.90;89.10;;;;;;5055759;28;20617;-68
2022/04/12 01:58:46;;;;;;;0.40;0.40;;;5.90;89.50;;;;;;5055492;28;20587;-67
2022/04/12 02:01:12;;;;;;;0.30;0.30;;;5.80;90.40;;;;;;5054057;28;20653;-67
2022/04/12 02:03:37;;;;;;;0.30;0.30;;;5.90;91.00;;;;;;5055450;28;20192;-67
2022/04/12 02:06:03;;;;;;;0.37;0.37;;;5.80;90.70;;;;;;5055410;28;20194;-68
2022/04/12 02:08:29;;;;;;;0.30;0.30;;;5.80;90.60;;;;;;5055277;28;20669;-68
2022/04/12 02:10:55;;;;;;;0.40;0.40;;;5.80;91.20;;;;;;5055292;28;20162;-67
2022/04/12 02:13:20;;;;;;;0.40;0.40;;;5.80;90.90;;;;;;5055382;28;20178;-68
2022/04/12 02:15:46;;;;;;;0.40;0.40;;;5.80;90.70;;;;;;5055377;28;20166;-67
2022/04/12 02:18:11;;;;;;;0.30;0.30;;;5.90;90.60;;;;;;5055184;28;20205;-67
2022/04/12 02:20:37;;;;;;;0.30;0.30;;;6.00;91.00;;;;;;5055101;28;20201;-68
2022/04/12 02:23:03;;;;;;;0.40;0.40;;;6.00;91.10;;;;;;5055117;28;20240;-67
2022/04/12 02:25:29;;;;;;;0.40;0.40;;;5.90;91.80;;;;;;5055110;28;20259;-67
2022/04/12 02:27:54;;;;;;;1.17;1.07;;;5.90;91.40;;;;;;5054887;28;20512;-67
2022/04/12 02:30:20;;;;;;;0.40;0.40;;;5.90;91.50;;;;;;5054775;28;20174;-67
2022/04/12 02:32:45;;;;;;;0.40;0.40;;;5.90;92.00;;;;;;5054954;28;20635;-68
2022/04/12 02:35:12;;;;;;;0.40;0.40;;;5.90;92.00;;;;;;5054926;28;20282;-67
2022/04/12 02:37:37;;;;;;;0.40;0.40;;;5.90;92.60;;;;;;5054883;28;20190;-68
2022/04/12 02:40:04;;;;;;;0.37;0.37;;;5.90;92.50;;;;;;5054570;28;20178;-68
2022/04/12 02:42:30;;;;;;;0.40;0.40;;;6.00;92.20;;;;;;5054740;28;20249;-68
2022/04/12 02:44:55;;;;;;;0.40;0.40;;;6.00;91.90;;;;;;5053950;28;20205;-68
2022/04/12 02:47:25;;;;;;;0.40;0.40;;;6.00;92.20;;;;;;5054559;28;20214;-68
2022/04/12 02:49:52;;;;;;;0.40;0.40;;;6.00;92.80;;;;;;5054573;28;20167;-68
2022/04/12 02:52:18;;;;;;;0.40;0.40;;;5.90;93.30;;;;;;5054609;28;20530;-67
2022/04/12 02:54:44;;;;;;;0.40;0.40;;;6.00;93.50;;;;;;5054535;28;20165;-68
2022/04/12 02:57:09;;;;;;;0.40;0.40;;;6.00;93.40;;;;;;5054370;28;20186;-67
2022/04/12 02:59:35;;;;;;;0.40;0.40;;;6.00;93.60;;;;;;5054546;28;20177;-67
2022/04/12 03:02:00;;;;;;;0.40;0.40;;;6.10;93.00;;;;;;5054150;28;20200;-67
2022/04/12 03:04:26;;;;;;;0.40;0.40;;;6.20;93.00;;;;;;5054351;28;20166;-67
2022/04/12 03:06:52;;;;;;;0.40;0.40;;;6.20;92.90;;;;;;5054221;28;20205;-68
2022/04/12 03:09:18;;;;;;;0.30;0.30;;;6.10;92.70;;;;;;5054238;28;20167;-68
2022/04/12 03:11:44;;;;;;;0.40;0.40;;;6.20;92.70;;;;;;5053955;28;20174;-68
2022/04/12 03:14:09;;;;;;;0.40;0.40;;;6.20;92.10;;;;;;5054124;28;20170;-68
2022/04/12 03:16:35;;;;;;;0.30;0.30;;;6.20;92.90;;;;;;5053918;28;20225;-68
2022/04/12 03:19:01;;;;;;;0.40;0.40;;;6.10;93.30;;;;;;5054087;28;20185;-67
2022/04/12 03:21:26;;;;;;;0.30;0.30;;;6.20;93.50;;;;;;5053766;28;20407;-68
2022/04/12 03:23:52;;;;;;;0.30;0.30;;;6.20;93.10;;;;;;5054168;28;20574;-68
2022/04/12 03:26:18;;;;;;;0.37;0.37;;;6.20;93.30;;;;;;5053874;28;20225;-67
2022/04/12 03:28:43;;;;;;;0.40;0.40;;;6.20;93.30;;;;;;5053820;28;20678;-67
2022/04/12 03:31:09;;;;;;;0.30;0.30;;;6.20;93.50;;;;;;5053611;28;20170;-68
2022/04/12 03:33:34;;;;;;;0.30;0.30;;;6.20;93.30;;;;;;5052600;28;20625;-68
2022/04/12 03:36:00;;;;;;;0.30;0.30;;;6.20;93.20;;;;;;5053864;28;20181;-67
2022/04/12 03:38:26;;;;;;;0.40;0.40;;;6.30;93.20;;;;;;5053631;28;20193;-67
2022/04/12 03:40:52;;;;;;;0.30;0.30;;;6.30;92.90;;;;;;5053533;28;20202;-68
2022/04/12 03:43:17;;;;;;;0.40;0.40;;;6.30;93.00;;;;;;5053830;28;20218;-68
2022/04/12 03:45:43;;;;;;;0.37;0.37;;;6.30;93.30;;;;;;5053866;28;20442;-67
2022/04/12 03:48:09;;;;;;;0.37;0.37;;;6.40;93.40;;;;;;5053527;28;20216;-68
2022/04/12 03:50:34;;;;;;;0.30;0.30;;;6.30;93.80;;;;;;5053375;28;20416;-67
2022/04/12 03:53:01;;;;;;;0.30;0.30;;;6.10;94.50;;;;;;5053712;28;20170;-67
2022/04/12 03:55:30;;;;;;;0.32;0.32;;;6.10;94.60;;;;;;5052968;28;20627;-68
2022/04/12 03:58:04;;;;;;;0.40;0.40;;;6.20;94.80;;;;;;5052957;28;20269;-68
2022/04/12 04:00:31;;;;;;;0.40;0.40;;;6.20;94.70;;;;;;5053215;28;20170;-67
2022/04/12 04:02:57;;;;;;;0.30;0.30;;;6.20;94.80;;;;;;5053650;28;20170;-67
2022/04/12 04:05:23;;;;;;;0.40;0.40;;;6.20;94.60;;;;;;5053292;28;20166;-67
2022/04/12 04:07:49;;;;;;;0.40;0.40;;;6.30;94.70;;;;;;5053411;28;20194;-67
2022/04/12 04:10:15;;;;;;;0.40;0.40;;;6.30;94.50;;;;;;5053078;28;20220;-68
2022/04/12 04:12:42;;;;;;;0.35;0.35;;;6.30;94.30;;;;;;5053333;28;20400;-68
2022/04/12 04:15:12;;;;;;;0.40;0.40;;;6.30;94.10;;;;;;5052336;28;20209;-68
2022/04/12 04:17:40;;;;;;;0.40;0.40;;;6.40;94.10;;;;;;5053051;28;20264;-67
2022/04/12 04:20:07;;;;;;;1.02;1.02;;;6.30;94.40;;;;;;5053151;28;20175;-67
2022/04/12 04:22:32;;;;;;;0.40;0.40;;;6.30;94.90;;;;;;5051770;28;20710;-67
2022/04/12 04:24:58;;;;;;;0.33;0.33;;;6.20;95.00;;;;;;5053190;28;20178;-67
2022/04/12 04:27:28;;;;;;;0.40;0.40;;;6.20;95.20;;;;;;5052966;28;20210;-68
2022/04/12 04:29:55;;;;;;;0.40;0.40;;;6.20;95.40;;;;;;5053053;28;20312;-67
2022/04/12 04:32:22;;;;;;;0.40;0.40;;;6.20;95.40;;;;;;5051724;28;20178;-67
2022/04/12 04:34:47;;;;;;;0.40;0.40;;;6.10;95.40;;;;;;5053278;28;20166;-67
2022/04/12 04:37:13;;;;;;;0.40;0.40;;;6.00;95.60;;;;;;5052826;28;20266;-67
2022/04/12 04:39:39;;;;;;;0.40;0.40;;;6.00;95.70;;;;;;5053009;28;20166;-68
2022/04/12 04:42:05;;;;;;;0.40;0.40;;;6.00;95.60;;;;;;5052865;28;20185;-68
2022/04/12 04:44:31;;;;;;;0.30;0.30;;;6.10;95.60;;;;;;5053107;28;20170;-68
2022/04/12 04:46:57;;;;;;;0.40;0.40;;;6.10;95.70;;;;;;5051606;28;20271;-68
2022/04/12 04:49:23;;;;;;;0.40;0.40;;;6.10;95.50;;;;;;5052810;28;20172;-68
2022/04/12 04:51:49;;;;;;;0.40;0.40;;;6.20;95.20;;;;;;5052686;28;20409;-68
2022/04/12 04:54:14;;;;;;;0.37;0.37;;;6.20;94.90;;;;;;5052860;28;20182;-68
2022/04/12 04:56:40;;;;;;;0.40;0.40;;;6.30;94.70;;;;;;5052819;28;20704;-67
2022/04/12 04:59:05;;;;;;;0.50;0.50;;;6.30;94.50;;;;;;5052964;28;20181;-67
2022/04/12 05:01:31;;;;;;;0.30;0.30;;;6.30;94.80;;;;;;5052887;28;20182;-68
2022/04/12 05:03:57;;;;;;;0.40;0.40;;;6.40;94.90;;;;;;5053057;28;20171;-67
2022/04/12 05:06:23;;;;;;;0.30;0.30;;;6.40;94.50;;;;;;5052636;28;20650;-67
2022/04/12 05:08:48;;;;;;;0.30;0.30;;;6.50;94.50;;;;;;5055687;28;20162;-67
2022/04/12 05:11:14;;;;;;;0.30;0.30;;;6.40;94.50;;;;;;5055048;28;20420;-67
2022/04/12 05:13:40;;;;;;;0.40;0.40;;;6.50;94.70;;;;;;5056454;28;20163;-68
2022/04/12 05:16:05;;;;;;;0.40;0.40;;;6.50;94.70;;;;;;5056335;28;20623;-67
2022/04/12 05:18:31;;;;;;;0.40;0.40;;;6.60;94.60;;;;;;5056387;28;20188;-67
2022/04/12 05:20:57;;;;;;;0.37;0.37;;;6.80;94.20;;;;;;5056211;28;20569;-68
2022/04/12 05:23:23;;;;;;;1.23;1.13;;;6.90;94.40;;;;;;5056494;28;20417;-68
2022/04/12 05:25:53;;;;;;;0.40;0.40;;;6.90;94.50;;;;;;5054665;28;21012;-68
2022/04/12 05:28:20;;;;;;;0.40;0.40;;;7.00;94.60;;;;;;5056194;28;20184;-68
2022/04/12 05:30:46;;;;;;;0.40;0.40;;;7.10;94.00;;;;;;5055838;28;20165;-68
2022/04/12 05:33:12;;;;;;;0.30;0.30;;;7.20;94.20;;;;;;5056656;28;20182;-68
2022/04/12 05:35:38;;;;;;;0.30;0.30;;;7.40;94.40;;;;;;5056089;28;20528;-68
2022/04/12 05:38:06;;;;;;;0.40;0.40;;;7.60;93.90;;;;;;5056089;28;20193;-68
2022/04/12 05:40:31;;;;;;;0.30;0.30;;;7.90;92.90;;;;;;5055825;28;20411;-68
2022/04/12 05:42:57;;;;;;;0.40;0.40;;;8.10;93.40;;;;;;5056423;28;20644;-68
2022/04/12 05:45:22;;;;;;;0.30;0.30;;;8.30;92.70;;;;;;5056182;28;20636;-68
2022/04/12 05:47:52;;;;;;;0.40;0.40;;;8.50;91.80;;;;;;5056021;28;20210;-68
2022/04/12 05:50:21;;;;;;;0.52;0.52;;;9.00;91.50;;;;;;5054367;28;20170;-68
2022/04/12 05:52:47;;;;;;;0.30;0.30;;;9.70;90.70;;;;;;5055967;28;20185;-68
2022/04/12 05:55:15;;;;;;;0.30;0.30;;;10.70;85.70;;;;;;5054387;28;20662;-68
2022/04/12 05:58:07;;;;;;;0.40;0.40;;;11.70;82.80;;;;;;5054204;28;20433;-69
2022/04/12 06:00:34;;;;;;;0.80;0.80;;;13.40;77.20;;;;;;5053557;28;20411;-68
2022/04/12 06:03:02;;;;;;;0.30;0.30;;;13.70;73.90;;;;;;5055474;28;20432;-68
2022/04/12 06:05:30;;;;;;;1.13;1.03;;;14.20;69.70;;;;;;5055400;28;20487;-68
2022/04/12 06:07:55;;;;;;;0.30;0.30;;;14.40;68.90;;;;;;5055246;28;20435;-69
2022/04/12 06:10:22;;;;;;;0.30;0.30;;;14.40;67.10;;;;;;5053898;28;20405;-71
2022/04/12 06:12:49;;;;;;;0.30;0.30;;;14.40;67.50;;;;;;5055895;28;20173;-72
2022/04/12 06:15:15;;;;;;;0.67;0.67;;;14.50;67.40;;;;;;5055575;28;20433;-68
2022/04/12 06:17:41;;;;;;;0.30;0.30;;;14.40;65.40;;;;;;5053896;28;20460;-68
2022/04/12 06:20:12;;;;;;;0.47;0.47;;;14.30;64.80;;;;;;5054182;28;20253;-67
2022/04/12 06:22:39;;;;;;;0.40;0.40;;;14.30;65.00;;;;;;5053043;28;20492;-68
2022/04/12 06:25:06;;;;;;;0.30;0.30;;;14.40;64.60;;;;;;5053159;28;20966;-68
2022/04/12 06:27:37;;;;;;;0.50;0.50;;;14.60;63.50;;;;;;5055117;28;20827;-67
2022/04/12 06:30:07;;;;;;;0.30;0.30;;;14.80;64.20;;;;;;5053467;28;20411;-67
2022/04/12 06:32:34;;;;;;;0.30;0.30;;;15.00;63.90;;;;;;5055480;28;20408;-68
2022/04/12 06:35:00;;;;;;;0.30;0.30;;;15.30;64.00;;;;;;5055448;28;20428;-67
2022/04/12 06:37:26;;;;;;;0.37;0.37;;;15.40;63.60;;;;;;5053794;28;20920;-67
2022/04/12 06:39:52;;;;;;;1.13;0.70;;;15.70;64.10;;;;;;5054607;28;20408;-67
2022/04/12 06:42:18;;;;;;;1.27;1.27;;;15.70;63.50;;;;;;5054771;28;20413;-67
2022/04/12 06:44:44;;;;;;;0.50;0.50;;;16.00;63.50;;;;;;5054927;28;20495;-67
2022/04/12 06:47:09;;;;;;;0.40;0.40;;;16.30;62.70;;;;;;5054771;28;20217;-67
2022/04/12 06:49:35;;;;;;;0.40;0.40;;;16.60;62.60;;;;;;5055172;28;20255;-67
2022/04/12 06:52:01;;;;;;;0.40;0.40;;;17.10;62.60;;;;;;5054621;28;20630;-68
2022/04/12 06:54:27;;;;;;;0.40;0.40;;;17.60;60.40;;;;;;5053169;28;20188;-69
2022/04/12 06:56:52;;;;;;;0.40;0.40;;;18.20;58.00;;;;;;5054589;28;20201;-69
2022/04/12 06:59:18;;;;;;;0.30;0.30;;;18.80;56.80;;;;;;5054443;28;20405;-69
2022/04/12 07:01:44;;;;;;;0.30;0.30;;;19.40;55.60;;;;;;5053452;28;20175;-68
2022/04/12 07:04:09;;;;;;;0.40;0.40;;;19.70;55.10;;;;;;5053757;28;20262;-69
2022/04/12 07:06:35;;;;;;;0.40;0.40;;;20.20;53.90;;;;;;5053772;28;20211;-69
2022/04/12 07:09:01;;;;;;;0.30;0.30;;;21.00;53.00;;;;;;5053605;28;20600;-68
2022/04/12 07:11:27;;;;;;;0.40;0.40;;;21.80;51.00;;;;;;5053142;28;20528;-69
2022/04/12 07:13:52;;;;;;;0.30;0.30;;;22.40;49.90;;;;;;5054116;28;20418;-68
2022/04/12 07:16:18;;;;;;;1.27;1.10;;;23.10;49.00;;;;;;5052274;28;20177;-69
2022/04/12 07:18:44;;;;;;;0.40;0.40;;;23.70;47.00;;;;;;5053558;28;20178;-69
2022/04/12 07:21:09;;;;;;;0.40;0.40;;;24.40;46.30;;;;;;5052771;28;20626;-70
2022/04/12 07:23:36;;;;;;;0.30;0.30;;;25.20;44.10;;;;;;5052967;28;20259;-69
2022/04/12 07:26:03;;;;;;;0.50;0.50;;;25.70;42.30;;;;;;5053669;28;20226;-69
2022/04/12 07:28:29;;;;;;;0.40;0.40;;;25.90;40.80;;;;;;5052366;28;20460;-69
2022/04/12 07:30:54;;;;;;;0.40;0.40;;;26.00;40.20;;;;;;5053717;28;20444;-68
2022/04/12 07:33:20;;;;;;;2.20;2.10;;;25.70;34.20;;;;;;5053904;28;20166;-68
2022/04/12 07:35:46;;;;;;;0.30;0.30;;;25.70;38.00;;;;;;5052812;28;20552;-69
2022/04/12 07:38:12;;;;;;;1.00;1.00;;;26.10;38.80;;;;;;5053666;28;20229;-70
2022/04/12 07:40:38;;;;;;;0.40;0.40;;;26.60;38.10;;;;;;5052142;28;20451;-69
2022/04/12 07:43:04;;;;;;;0.57;0.57;;;27.30;38.70;;;;;;5054317;28;20650;-69
2022/04/12 07:45:30;;;;;;;0.30;0.30;;;27.60;36.50;;;;;;5053909;28;20433;-70
2022/04/12 07:47:56;;;;;;;0.80;0.80;;;27.70;36.00;;;;;;5054290;28;20429;-68
2022/04/12 07:50:21;;;;;;;0.30;0.30;;;27.60;34.80;;;;;;5053844;28;20540;-70
2022/04/12 07:52:47;;;;;;;0.40;0.40;;;27.40;33.80;;;;;;5054270;28;20500;-69
2022/04/12 07:55:13;;;;;;;0.30;0.30;;;27.70;34.30;;;;;;5054128;28;20185;-71
2022/04/12 07:57:39;;;;;;;0.60;0.60;;;27.90;34.20;;;;;;5057697;28;20209;-70
2022/04/12 08:00:05;;;;;;;0.30;0.30;;;28.20;31.70;;;;;;5056122;28;20412;-68
2022/04/12 08:02:31;;;;;;;0.30;0.30;;;28.30;27.60;;;;;;5054675;28;20261;-71
2022/04/12 08:04:56;;;;;;;0.40;0.40;;;28.30;31.00;;;;;;5054328;28;20439;-69
2022/04/12 08:07:25;;;;;;;0.30;0.30;;;28.20;31.60;;;;;;5054488;28;20672;-68
2022/04/12 08:09:50;;;;;;;0.30;0.30;;;28.10;32.30;;;;;;5053263;28;20175;-67
2022/04/12 08:12:16;;;;;;;0.30;0.30;;;27.80;32.60;;;;;;5053524;28;20408;-68
2022/04/12 08:14:42;;;;;;;0.30;0.30;;;27.70;32.40;;;;;;5053739;28;20202;-69
2022/04/12 08:17:07;;;;;;;0.30;0.30;;;27.60;33.10;;;;;;5053426;28;20194;-69
2022/04/12 08:19:33;;;;;;;0.30;0.30;;;27.50;33.20;;;;;;5053761;28;20170;-68
2022/04/12 08:22:01;;;;;;;0.80;0.70;;;27.70;32.70;;;;;;5053093;28;20185;-69
2022/04/12 08:24:29;;;;;;;0.40;0.40;;;28.20;29.50;;;;;;5052005;28;20619;-68
2022/04/12 08:26:55;;;;;;;0.30;0.30;;;28.80;30.50;;;;;;5053531;28;20468;-70
2022/04/12 08:29:20;;;;;;;0.30;0.30;;;29.30;29.60;;;;;;5051840;28;20462;-70
2022/04/12 08:31:47;;;;;;;0.30;0.30;;;30.20;28.20;;;;;;5053378;28;20542;-69
2022/04/12 08:34:13;;;;;;;0.30;0.30;;;30.70;27.00;;;;;;5053778;28;20579;-70
2022/04/12 08:36:38;;;;;;;0.80;0.80;;;29.90;24.80;;;;;;5051612;28;20420;-68
2022/04/12 08:39:04;;;;;;;0.30;0.30;;;29.10;24.80;;;;;;5053460;28;20180;-69
2022/04/12 08:41:34;;;;;;;0.30;0.30;;;29.00;26.60;;;;;;5051778;28;20205;-68
2022/04/12 08:44:00;;;;;;;0.50;0.50;;;28.90;24.70;;;;;;5056420;28;20413;-68
2022/04/12 08:46:27;;;;;;;0.30;0.30;;;29.20;26.20;;;;;;5057421;28;20543;-70
2022/04/12 08:48:57;;;;;;;0.30;0.30;;;29.20;23.90;;;;;;5057739;28;20170;-70
2022/04/12 08:51:27;;;;;;;0.87;0.87;;;29.90;25.70;;;;;;5056735;28;20884;-70
2022/04/12 08:53:57;;;;;;;0.30;0.30;;;31.00;24.80;;;;;;5059819;28;20491;-70
2022/04/12 08:56:23;;;;;;;0.40;0.40;;;31.40;24.50;;;;;;5062833;28;20400;-70
2022/04/12 08:58:49;;;;;;;0.47;0.47;;;30.90;24.50;;;;;;5059337;28;20463;-70
2022/04/12 09:01:15;;;;;;;0.30;0.30;;;30.30;23.70;;;;;;5062119;28;20778;-70
2022/04/12 09:03:41;;;;;;;0.30;0.30;;;29.80;24.60;;;;;;5062193;28;20170;-70
2022/04/12 09:06:10;;;;;;;0.30;0.30;;;29.20;24.50;;;;;;5062827;28;20487;-70
2022/04/12 09:08:36;;;;;;;0.30;0.30;;;29.70;24.50;;;;;;5062578;28;20242;-70
2022/04/12 09:11:07;;;;;;;0.30;0.30;;;30.70;24.40;;;;;;5062849;28;20424;-70
2022/04/12 09:13:33;;;;;;;0.30;0.30;;;31.20;22.80;;;;;;5060977;28;20198;-70
2022/04/12 09:16:00;;;;;;;0.30;0.30;;;31.20;23.60;;;;;;5056747;28;20751;-70
2022/04/12 09:18:40;;;;;;;0.30;0.30;;;31.60;23.90;;;;;;5055056;28;20440;-70
2022/04/12 09:21:21;;;;;;;0.30;0.30;;;32.00;22.90;;;;;;5056584;28;20404;-70
2022/04/12 09:23:49;;;;;;;0.30;0.30;;;32.50;22.10;;;;;;5056809;28;20412;-69
2022/04/12 09:26:22;;;;;;;0.30;0.30;;;32.30;21.70;;;;;;5056713;28;20494;-70
2022/04/12 09:28:49;;;;;;;0.30;0.30;;;32.70;21.60;;;;;;5056381;28;20389;-70
2022/04/12 09:31:17;;;;;;;0.30;0.30;;;33.10;21.30;;;;;;5055956;28;20444;-69
2022/04/12 09:33:44;;;;;;;0.30;0.30;;;33.10;21.90;;;;;;5056358;28;20397;-70
2022/04/12 09:36:10;;;;;;;0.30;0.30;;;33.30;21.50;;;;;;5056068;28;20764;-70
2022/04/12 09:38:37;;;;;;;0.30;0.30;;;33.60;21.20;;;;;;5056505;28;20475;-69
2022/04/12 09:41:14;;;;;;;0.40;0.40;;;33.50;21.10;;;;;;5055712;28;20486;-70
2022/04/12 09:43:54;;;;;;;0.30;0.30;;;32.60;21.10;;;;;;5054607;28;20923;-69
2022/04/12 09:46:20;;;;;;;0.30;0.30;;;30.80;22.10;;;;;;5055939;28;20440;-70
2022/04/12 09:48:50;;;;;;;0.30;0.30;;;29.90;22.60;;;;;;5055556;28;20412;-69
2022/04/12 09:51:17;;;;;;;0.30;0.30;;;29.50;23.80;;;;;;5055146;28;20163;-69
2022/04/12 09:53:46;;;;;;;0.70;0.70;;;29.30;23.30;;;;;;5056125;28;20401;-70
2022/04/12 09:56:19;;;;;;;0.30;0.30;;;29.30;23.20;;;;;;5055053;28;20416;-70
2022/04/12 09:58:47;;;;;;;0.30;0.30;;;29.00;24.40;;;;;;5055548;28;20407;-70
2022/04/12 10:01:14;;;;;;;0.30;0.30;;;29.30;23.70;;;;;;5054637;28;20440;-70
2022/04/12 10:03:44;;;;;;;0.30;0.30;;;29.20;23.00;;;;;;5055412;28;20932;-70
2022/04/12 10:06:13;;;;;;;0.30;0.30;;;28.80;22.90;;;;;;5055194;28;20452;-70
2022/04/12 10:08:40;;;;;;;0.30;0.30;;;28.30;22.90;;;;;;5054957;28;20457;-70
2022/04/12 10:11:08;;;;;;;0.30;0.30;;;27.90;24.10;;;;;;5055177;28;20401;-70
2022/04/12 10:13:33;;;;;;;0.30;0.30;;;27.50;24.80;;;;;;5054429;28;20766;-70
2022/04/12 10:15:59;;;;;;;0.30;0.30;;;27.00;24.90;;;;;;5054791;28;20413;-70
2022/04/12 10:18:26;;;;;;;0.40;0.40;;;26.80;24.90;;;;;;5054812;28;20487;-70
2022/04/12 10:20:52;;;;;;;0.30;0.30;;;26.70;24.60;;;;;;5054646;28;20177;-70
2022/04/12 10:23:23;;;;;;;0.30;0.30;;;26.50;24.50;;;;;;5054316;28;20409;-70
2022/04/12 10:25:54;;;;;;;0.30;0.30;;;26.40;24.80;;;;;;5055189;28;20426;-70
2022/04/12 10:28:21;;;;;;;0.60;0.60;;;26.30;25.30;;;;;;5054947;28;20420;-70
2022/04/12 10:30:47;;;;;;;0.30;0.30;;;26.60;25.70;;;;;;5054868;28;20491;-70
2022/04/12 10:33:15;;;;;;;0.30;0.30;;;26.40;24.60;;;;;;5055022;28;20585;-69
2022/04/12 10:35:56;;;;;;;0.40;0.40;;;26.10;24.60;;;;;;5054825;28;20174;-70
2022/04/12 10:38:24;;;;;;;0.30;0.30;;;26.20;24.90;;;;;;5055094;28;20414;-70
2022/04/12 10:40:54;;;;;;;0.30;0.30;;;25.90;25.40;;;;;;5053326;28;20418;-70
2022/04/12 10:43:35;;;;;;;0.30;0.30;;;25.90;25.00;;;;;;5054924;28;20420;-70
2022/04/12 10:46:02;;;;;;;0.30;0.30;;;25.70;25.00;;;;;;5054988;28;20420;-70
2022/04/12 10:48:29;;;;;;;0.30;0.30;;;25.60;25.80;;;;;;5054766;28;20463;-69
2022/04/12 10:50:56;;;;;;;0.30;0.30;;;25.40;25.70;;;;;;5054487;28;20412;-70
2022/04/12 10:53:36;;;;;;;0.30;0.30;;;25.30;26.10;;;;;;5054782;28;20591;-70
2022/04/12 10:56:11;;;;;;;0.40;0.40;;;25.30;26.30;;;;;;5054614;28;20407;-70
2022/04/12 10:58:37;;;;;;;0.30;0.30;;;25.30;25.70;;;;;;5054651;28;20759;-70
2022/04/12 11:01:04;;;;;;;0.30;0.30;;;25.00;26.20;;;;;;5054288;28;20441;-70
2022/04/12 11:03:41;;;;;;;0.30;0.30;;;25.20;26.70;;;;;;5054427;28;20535;-70
2022/04/12 11:06:14;;;;;;;0.30;0.30;;;25.20;26.40;;;;;;5053820;28;20783;-70
2022/04/12 11:08:43;;;;;;;0.30;0.30;;;25.40;26.80;;;;;;5053136;28;20425;-70
2022/04/12 11:11:10;;;;;;;0.30;0.30;;;25.10;25.70;;;;;;5052918;28;20710;-70
2022/04/12 11:13:37;;;;;;;0.30;0.30;;;24.40;25.80;;;;;;5052249;28;20905;-69
2022/04/12 11:16:07;;;;;;;0.30;0.30;;;23.90;27.30;;;;;;5053195;28;20440;-70
2022/04/12 11:18:47;;;;;;;0.30;0.30;;;23.80;26.50;;;;;;5054008;28;20436;-70
2022/04/12 11:21:14;;;;;;;0.30;0.30;;;24.00;26.30;;;;;;5053603;28;20457;-70
2022/04/12 11:23:48;;;;;;;0.30;0.30;;;23.90;26.00;;;;;;5053965;28;20392;-69
2022/04/12 11:26:52;;;;;;;0.30;0.30;;;23.70;26.70;;;;;;5053893;28;20423;-69
2022/04/12 11:29:22;;;;;;;0.30;0.30;;;23.80;26.80;;;;;;5053900;28;20377;-70
2022/04/12 11:31:53;;;;;;;0.30;0.30;;;23.80;26.70;;;;;;5054138;28;20389;-69
2022/04/12 11:34:20;;;;;;;0.30;0.30;;;23.40;27.20;;;;;;5053689;28;20413;-69
2022/04/12 11:36:52;;;;;;;0.30;0.30;;;23.10;27.50;;;;;;5053955;28;20420;-69
2022/04/12 11:39:26;;;;;;;0.30;0.30;;;22.70;27.90;;;;;;5053417;28;20412;-69
2022/04/12 11:42:06;;;;;;;0.30;0.30;;;22.70;29.30;;;;;;5053414;28;20387;-69
2022/04/12 11:44:32;;;;;;;0.30;0.30;;;22.90;29.60;;;;;;5053466;28;20494;-69
2022/04/12 11:47:05;;;;;;;0.30;0.30;;;22.90;29.30;;;;;;5053484;28;20460;-70
2022/04/12 11:49:36;;;;;;;0.30;0.30;;;23.00;29.60;;;;;;5053302;28;20397;-69
2022/04/12 11:52:04;;;;;;;0.30;0.30;;;23.10;29.70;;;;;;5053964;28;20380;-69
2022/04/12 11:54:38;;;;;;;5.60;0.93;;;23.10;29.20;;;;;;5054111;28;20815;-69
2022/04/12 11:57:10;;;;;;;0.30;0.30;;;23.00;28.50;;;;;;5053729;28;20473;-69
2022/04/12 11:59:56;;;;;;;0.30;0.30;;;22.80;28.60;;;;;;5053131;28;20383;-68
2022/04/12 12:02:32;;;;;;;0.30;0.30;;;22.80;29.60;;;;;;5052709;28;20780;-67
2022/04/12 12:05:00;;;;;;;0.30;0.30;;;22.80;27.80;;;;;;5053834;28;20458;-68
2022/04/12 12:07:27;;;;;;;0.30;0.30;;;22.50;27.90;;;;;;5053376;28;20464;-68
2022/04/12 12:10:13;;;;;;;0.30;0.30;;;22.50;28.20;;;;;;5053380;28;20411;-67
2022/04/12 12:12:49;;;;;;;0.30;0.30;;;22.70;28.00;;;;;;5053816;28;20401;-69
2022/04/12 12:15:23;;;;;;;0.30;0.30;;;22.90;27.90;;;;;;5053318;28;20461;-68
2022/04/12 12:17:55;;;;;;;0.30;0.30;;;23.10;28.70;;;;;;5055026;28;20452;-68
2022/04/12 12:20:25;;;;;;;0.30;0.30;;;23.30;28.00;;;;;;5057350;28;20404;-68
2022/04/12 12:22:53;;;;;;;1.13;0.83;;;23.20;27.60;;;;;;5057764;28;20417;-68
2022/04/12 12:25:18;;;;;;;0.30;0.30;;;23.10;29.90;;;;;;5057931;28;20419;-69
2022/04/12 12:27:54;;;;;;;0.30;0.30;;;22.90;28.80;;;;;;5057226;28;20460;-69
2022/04/12 12:30:21;;;;;;;0.30;0.30;;;22.90;28.50;;;;;;5057472;28;20166;-68
2022/04/12 12:32:51;;;;;;;0.30;0.30;;;22.80;28.30;;;;;;5057709;28;20375;-69
2022/04/12 12:35:17;;;;;;;0.30;0.30;;;22.60;28.10;;;;;;5057651;28;20381;-67
2022/04/12 12:37:44;;;;;;;0.30;0.30;;;22.80;28.60;;;;;;5057160;28;20420;-67
2022/04/12 12:40:26;;;;;;;0.30;0.30;;;23.10;28.30;;;;;;5057418;28;20428;-69
2022/04/12 12:42:54;;;;;;;0.30;0.30;;;23.30;28.20;;;;;;5056832;28;20414;-69
2022/04/12 12:45:21;;;;;;;0.30;0.30;;;23.50;29.00;;;;;;5057172;28;20491;-69
2022/04/12 12:47:50;;;;;;;0.30;0.30;;;23.50;28.40;;;;;;5056175;28;20989;-67
2022/04/12 12:50:18;;;;;;;0.30;0.30;;;23.10;28.40;;;;;;5057177;28;20408;-68
2022/04/12 12:52:45;;;;;;;1.50;1.43;;;22.90;28.60;;;;;;5057509;28;20396;-68
2022/04/12 12:55:19;;;;;;;0.30;0.30;;;22.70;29.20;;;;;;5057147;28;20488;-68